Time;durP1;ratioP1;P1;durP2;ratioP2;P2;SDS_P1;SDS_P2;PMS_P1;PMS_P2;Temp;Humidity;BMP_temperature;BMP_pressure;BME280_temperature;BME280_humidity;BME280_pressure;Samples;Min_cycle;Max_cycle;Signal;HPM_P1;HPM_P2
2022/07/31 00:01:50;;;;;;;1.98;1.40;;;23.90;96.60;;;;;;4185200;28;20029;-67
2022/07/31 00:03:50;;;;;;;1.40;1.27;;;23.90;96.30;;;;;;4185438;28;20418;-67
2022/07/31 00:05:51;;;;;;;2.42;1.15;;;24.00;96.20;;;;;;4180820;28;20132;-67
2022/07/31 00:07:54;;;;;;;1.60;1.20;;;23.90;96.60;;;;;;4176876;28;20036;-67
2022/07/31 00:09:55;;;;;;;1.73;1.42;;;23.90;96.60;;;;;;4185578;28;20029;-67
2022/07/31 00:11:56;;;;;;;1.83;1.50;;;23.90;96.50;;;;;;4184942;28;20040;-67
2022/07/31 00:13:56;;;;;;;2.05;1.58;;;23.80;96.70;;;;;;4185482;28;20087;-67
2022/07/31 00:15:57;;;;;;;2.40;1.63;;;23.70;95.90;;;;;;4176512;28;20033;-67
2022/07/31 00:17:57;;;;;;;1.67;1.45;;;23.80;96.30;;;;;;4181945;28;20039;-67
2022/07/31 00:19:58;;;;;;;3.35;1.88;;;23.70;96.00;;;;;;4185284;28;20086;-67
2022/07/31 00:21:59;;;;;;;1.30;1.20;;;23.70;96.00;;;;;;4164703;28;20496;-67
2022/07/31 00:23:59;;;;;;;1.98;1.50;;;23.70;96.10;;;;;;4185782;28;20025;-67
2022/07/31 00:26:00;;;;;;;2.83;1.73;;;23.60;96.30;;;;;;4177932;28;20041;-67
2022/07/31 00:28:01;;;;;;;1.98;1.77;;;23.60;96.60;;;;;;4185077;28;21423;-67
2022/07/31 00:30:02;;;;;;;2.22;1.60;;;23.60;96.40;;;;;;4182378;28;20064;-67
2022/07/31 00:32:04;;;;;;;2.30;1.77;;;23.60;96.50;;;;;;4183165;28;20044;-67
2022/07/31 00:34:04;;;;;;;2.05;1.38;;;23.50;96.60;;;;;;4185330;28;20048;-67
2022/07/31 00:36:05;;;;;;;2.83;1.63;;;23.50;96.70;;;;;;4173843;28;20353;-67
2022/07/31 00:38:07;;;;;;;1.50;1.40;;;23.50;96.80;;;;;;4185176;28;20491;-67
2022/07/31 00:40:10;;;;;;;2.17;1.52;;;23.50;96.80;;;;;;4184031;28;20119;-67
2022/07/31 00:42:18;;;;;;;1.83;1.40;;;23.50;96.80;;;;;;4186271;28;20027;-68
2022/07/31 00:44:20;;;;;;;1.80;1.50;;;23.50;96.70;;;;;;4183672;28;20515;-67
2022/07/31 00:46:20;;;;;;;2.47;1.67;;;23.50;96.90;;;;;;4172829;28;20045;-67
2022/07/31 00:48:21;;;;;;;1.77;1.45;;;23.40;97.20;;;;;;4184371;28;20076;-67
2022/07/31 00:50:21;;;;;;;2.03;1.50;;;23.40;97.20;;;;;;4184337;28;20041;-67
2022/07/31 00:52:24;;;;;;;2.28;1.58;;;23.50;97.20;;;;;;4183685;28;20033;-67
2022/07/31 00:54:24;;;;;;;2.15;1.70;;;23.40;97.00;;;;;;4183940;28;20364;-67
2022/07/31 00:56:25;;;;;;;2.88;1.70;;;23.40;97.20;;;;;;4176540;28;20036;-67
2022/07/31 00:58:25;;;;;;;2.67;1.73;;;23.40;97.00;;;;;;4183024;28;20116;-67
2022/07/31 01:00:26;;;;;;;2.13;1.42;;;23.40;96.90;;;;;;4184394;28;20143;-66
2022/07/31 01:02:27;;;;;;;4.50;2.00;;;23.40;96.40;;;;;;4182715;28;20033;-68
2022/07/31 01:04:28;;;;;;;1.65;1.45;;;23.40;96.70;;;;;;4165037;28;20466;-68
2022/07/31 01:06:28;;;;;;;1.88;1.70;;;23.30;96.80;;;;;;4179265;28;20045;-67
2022/07/31 01:08:29;;;;;;;1.90;1.48;;;23.30;97.10;;;;;;4184933;28;20119;-67
2022/07/31 01:11:03;;;;;;;1.90;1.58;;;23.30;97.30;;;;;;4183989;28;20403;-68
2022/07/31 01:16:03;;;;;;;1.67;1.33;;;23.30;97.20;;;;;;4171623;28;20493;-68
2022/07/31 01:18:06;;;;;;;2.42;1.75;;;23.30;97.40;;;;;;4179481;28;20029;-67
2022/07/31 01:20:07;;;;;;;2.45;1.52;;;23.20;96.90;;;;;;4179269;28;20045;-68
2022/07/31 01:22:25;;;;;;;1.83;1.50;;;23.30;97.10;;;;;;4179186;28;20113;-68
2022/07/31 01:24:47;;;;;;;1.67;1.33;;;23.20;97.30;;;;;;4178430;28;20036;-68
2022/07/31 01:26:59;;;;;;;1.83;1.58;;;23.20;97.00;;;;;;4176071;28;20051;-68
2022/07/31 01:29:35;;;;;;;2.05;1.50;;;23.20;97.00;;;;;;4170215;28;20102;-68
2022/07/31 01:31:43;;;;;;;2.03;1.40;;;23.10;97.30;;;;;;4146534;28;20025;-68
2022/07/31 01:34:07;;;;;;;2.63;1.60;;;23.20;97.70;;;;;;4169861;28;20041;-68
2022/07/31 01:36:11;;;;;;;2.42;1.58;;;23.20;97.60;;;;;;4161264;28;20041;-68
2022/07/31 01:38:35;;;;;;;4.45;1.80;;;23.10;97.50;;;;;;4175078;28;20061;-68
2022/07/31 01:40:49;;;;;;;4.82;1.80;;;23.20;98.30;;;;;;4169210;28;20112;-68
2022/07/31 01:42:54;;;;;;;1.63;1.38;;;23.10;97.90;;;;;;4181121;28;20049;-68
2022/07/31 01:44:58;;;;;;;4.57;1.65;;;23.10;97.70;;;;;;4184032;28;20045;-68
2022/07/31 01:47:00;;;;;;;2.50;1.60;;;23.10;98.20;;;;;;4182242;28;20033;-68
2022/07/31 01:49:01;;;;;;;1.60;1.50;;;23.10;98.00;;;;;;4187832;28;20040;-68
2022/07/31 01:51:04;;;;;;;1.55;1.45;;;23.00;98.40;;;;;;4186737;28;20758;-68
2022/07/31 01:53:06;;;;;;;2.05;1.70;;;23.00;97.90;;;;;;4187178;28;20361;-67
2022/07/31 01:55:09;;;;;;;2.55;1.90;;;23.00;98.00;;;;;;4179799;28;20029;-68
2022/07/31 01:57:10;;;;;;;2.88;1.70;;;23.00;97.90;;;;;;4180346;28;20460;-67
2022/07/31 01:59:12;;;;;;;3.15;1.63;;;23.00;98.20;;;;;;4184484;28;20434;-67
2022/07/31 02:01:14;;;;;;;2.00;1.57;;;22.90;98.00;;;;;;4186872;28;20025;-68
2022/07/31 02:03:15;;;;;;;3.72;2.08;;;23.00;98.10;;;;;;4187777;28;20040;-68
2022/07/31 02:05:18;;;;;;;3.38;2.03;;;22.90;97.90;;;;;;4180686;28;20041;-68
2022/07/31 02:07:19;;;;;;;5.03;2.72;;;22.90;97.70;;;;;;4182062;28;20118;-68
2022/07/31 02:09:22;;;;;;;4.20;2.50;;;22.90;98.10;;;;;;4161144;28;20503;-67
2022/07/31 02:11:23;;;;;;;3.00;1.77;;;22.90;97.00;;;;;;4186741;28;20464;-68
2022/07/31 02:13:25;;;;;;;2.42;1.85;;;22.80;96.70;;;;;;4186903;28;20055;-68
2022/07/31 02:15:26;;;;;;;;;;;22.80;96.90;;;;;;4181925;28;20599;-68
2022/07/31 02:17:27;;;;;;;2.67;2.10;;;22.80;96.80;;;;;;4177243;28;19923;-68
2022/07/31 02:19:28;;;;;;;3.22;2.08;;;22.80;96.90;;;;;;4185392;28;20037;-67
2022/07/31 02:21:29;;;;;;;4.00;2.05;;;22.80;96.80;;;;;;4186609;28;20430;-67
2022/07/31 02:23:29;;;;;;;3.53;1.90;;;22.80;96.70;;;;;;4186341;28;20043;-68
2022/07/31 02:25:34;;;;;;;3.60;2.20;;;22.80;96.70;;;;;;4180702;28;20033;-68
2022/07/31 02:27:38;;;;;;;3.40;1.95;;;22.80;96.70;;;;;;4165244;28;20392;-68
2022/07/31 02:29:40;;;;;;;2.65;1.88;;;22.80;98.10;;;;;;4185041;28;20032;-68
2022/07/31 02:31:43;;;;;;;4.13;2.13;;;22.80;96.40;;;;;;4182831;28;20108;-68
2022/07/31 02:33:45;;;;;;;3.30;2.20;;;22.80;96.60;;;;;;4182719;28;20048;-68
2022/07/31 02:35:51;;;;;;;3.53;2.20;;;22.80;97.20;;;;;;4179857;28;20086;-68
2022/07/31 02:37:53;;;;;;;4.05;2.00;;;22.80;96.60;;;;;;4165659;28;20030;-68
2022/07/31 02:39:55;;;;;;;2.45;1.75;;;22.80;96.90;;;;;;4185325;28;20040;-67
2022/07/31 02:41:59;;;;;;;3.60;2.20;;;22.80;96.90;;;;;;4184520;28;20029;-68
2022/07/31 02:44:01;;;;;;;2.75;2.00;;;22.70;97.30;;;;;;4169905;28;20025;-67
2022/07/31 02:46:03;;;;;;;2.30;2.10;;;22.80;96.80;;;;;;4177524;28;20052;-68
2022/07/31 02:48:04;;;;;;;4.05;2.17;;;22.70;97.40;;;;;;4173962;28;20029;-68
2022/07/31 02:50:06;;;;;;;2.28;1.95;;;22.80;97.60;;;;;;4186055;28;20033;-68
2022/07/31 02:52:08;;;;;;;3.15;2.25;;;22.80;97.20;;;;;;4181619;28;20072;-68
2022/07/31 02:54:09;;;;;;;4.47;2.50;;;22.80;96.80;;;;;;4186446;28;20071;-67
2022/07/31 02:56:10;;;;;;;2.67;2.30;;;22.80;97.00;;;;;;4179346;28;20041;-68
2022/07/31 02:58:10;;;;;;;4.53;2.53;;;22.70;96.80;;;;;;4186546;28;20040;-68
2022/07/31 03:00:22;;;;;;;4.30;2.40;;;22.70;96.90;;;;;;4185167;28;20535;-68
2022/07/31 03:02:22;;;;;;;2.33;1.73;;;22.70;96.80;;;;;;4185932;28;20096;-68
2022/07/31 03:04:23;;;;;;;3.17;2.00;;;22.70;96.90;;;;;;4184436;28;20032;-68
2022/07/31 03:06:23;;;;;;;7.15;2.35;;;22.70;96.70;;;;;;4177574;28;20044;-68
2022/07/31 03:08:25;;;;;;;3.03;2.08;;;22.70;96.60;;;;;;4186641;28;20048;-68
2022/07/31 03:10:26;;;;;;;2.47;1.63;;;22.70;96.50;;;;;;4184213;28;20044;-68
2022/07/31 03:12:26;;;;;;;3.70;1.98;;;22.70;96.70;;;;;;4185448;28;20040;-68
2022/07/31 03:14:29;;;;;;;3.92;2.13;;;22.70;96.90;;;;;;4181938;28;20458;-68
2022/07/31 03:16:30;;;;;;;3.25;2.05;;;22.60;96.20;;;;;;4176471;28;20383;-67
2022/07/31 03:18:32;;;;;;;3.45;2.40;;;22.60;96.40;;;;;;4184777;28;20033;-68
2022/07/31 03:20:33;;;;;;;3.83;2.25;;;22.60;96.60;;;;;;4185453;28;20040;-68
2022/07/31 03:22:34;;;;;;;4.03;2.22;;;22.60;96.20;;;;;;4186400;28;20041;-68
2022/07/31 03:24:35;;;;;;;3.00;2.13;;;22.60;96.70;;;;;;4183110;28;20029;-67
2022/07/31 03:26:36;;;;;;;3.40;2.20;;;22.60;96.70;;;;;;4180989;28;20479;-68
2022/07/31 03:28:37;;;;;;;2.85;2.08;;;22.50;96.30;;;;;;4184664;28;20030;-68
2022/07/31 03:30:37;;;;;;;4.75;2.40;;;22.50;96.40;;;;;;4184018;28;20332;-67
2022/07/31 03:32:38;;;;;;;4.85;2.20;;;22.50;96.20;;;;;;4185968;28;20033;-67
2022/07/31 03:34:39;;;;;;;4.43;2.33;;;22.50;96.10;;;;;;4182874;28;20107;-68
2022/07/31 03:36:39;;;;;;;2.35;1.92;;;22.40;96.50;;;;;;4181926;28;20037;-67
2022/07/31 03:38:40;;;;;;;3.50;2.08;;;22.40;96.40;;;;;;4184715;28;20044;-68
2022/07/31 03:40:41;;;;;;;3.75;2.22;;;22.40;96.20;;;;;;4184687;28;20035;-68
2022/07/31 03:42:43;;;;;;;4.60;2.70;;;22.40;96.50;;;;;;4185768;28;20040;-68
2022/07/31 03:44:44;;;;;;;3.47;2.38;;;22.30;96.40;;;;;;4181561;28;20037;-68
2022/07/31 03:46:45;;;;;;;3.38;2.10;;;22.30;96.20;;;;;;4182620;28;20063;-68
2022/07/31 03:48:46;;;;;;;8.38;2.17;;;22.20;96.90;;;;;;4185784;28;20518;-68
2022/07/31 03:50:47;;;;;;;4.10;2.75;;;22.30;97.00;;;;;;4183714;28;20480;-67
2022/07/31 03:52:49;;;;;;;2.83;2.28;;;22.20;96.70;;;;;;4164536;28;20100;-67
2022/07/31 03:54:50;;;;;;;5.65;2.30;;;22.20;97.00;;;;;;4179440;28;20097;-68
2022/07/31 03:56:53;;;;;;;5.60;2.60;;;22.10;96.80;;;;;;4181975;28;20500;-67
2022/07/31 03:58:54;;;;;;;3.30;2.00;;;22.10;96.80;;;;;;4181804;28;20459;-67
2022/07/31 04:00:55;;;;;;;4.18;2.30;;;22.10;97.10;;;;;;4184743;28;20029;-68
2022/07/31 04:02:56;;;;;;;4.10;2.45;;;22.10;97.60;;;;;;4184255;28;20025;-68
2022/07/31 04:04:57;;;;;;;6.75;2.33;;;22.10;97.20;;;;;;4183026;28;20041;-68
2022/07/31 04:06:58;;;;;;;4.53;2.30;;;22.00;97.30;;;;;;4178206;28;20510;-68
2022/07/31 04:09:00;;;;;;;6.97;2.65;;;22.00;97.20;;;;;;4179327;28;20492;-68
2022/07/31 04:11:00;;;;;;;2.72;1.88;;;22.00;96.90;;;;;;4183606;28;20564;-68
2022/07/31 04:13:05;;;;;;;4.45;2.42;;;22.00;97.50;;;;;;4185529;28;20041;-68
2022/07/31 04:15:06;;;;;;;4.00;2.47;;;21.90;96.90;;;;;;4183130;28;20528;-68
2022/07/31 04:17:06;;;;;;;3.47;2.15;;;21.90;97.20;;;;;;4171219;28;20166;-68
2022/07/31 04:19:07;;;;;;;4.68;2.30;;;21.90;97.10;;;;;;4176021;28;20443;-67
2022/07/31 04:21:08;;;;;;;4.93;2.20;;;21.80;97.40;;;;;;4182153;28;20029;-68
2022/07/31 04:23:08;;;;;;;5.13;2.55;;;21.80;97.40;;;;;;4182530;28;20040;-68
2022/07/31 04:25:09;;;;;;;3.72;2.33;;;21.80;97.30;;;;;;4180367;28;20057;-68
2022/07/31 04:27:10;;;;;;;3.90;2.40;;;21.80;97.70;;;;;;4178534;28;20074;-68
2022/07/31 04:29:10;;;;;;;2.92;2.30;;;21.80;97.90;;;;;;4184288;28;20036;-67
2022/07/31 04:31:11;;;;;;;4.45;2.72;;;21.80;97.90;;;;;;4182719;28;20134;-68
2022/07/31 04:33:11;;;;;;;3.90;2.17;;;21.80;97.50;;;;;;4185243;28;20033;-68
2022/07/31 04:35:12;;;;;;;3.92;2.65;;;21.80;97.80;;;;;;4178737;28;20153;-67
2022/07/31 04:37:13;;;;;;;5.38;2.95;;;21.80;97.70;;;;;;4177412;28;20021;-68
2022/07/31 04:39:13;;;;;;;5.40;2.55;;;21.80;98.20;;;;;;4182382;28;20028;-68
2022/07/31 04:41:16;;;;;;;4.78;3.03;;;21.80;98.00;;;;;;4181552;28;20051;-68
2022/07/31 04:43:16;;;;;;;5.03;2.85;;;21.80;97.90;;;;;;4185062;28;20033;-67
2022/07/31 04:45:17;;;;;;;4.70;2.53;;;21.70;97.90;;;;;;4180377;28;20494;-68
2022/07/31 04:47:18;;;;;;;3.40;2.30;;;21.70;98.00;;;;;;4179537;28;20032;-68
2022/07/31 04:49:18;;;;;;;4.88;2.58;;;21.70;98.10;;;;;;4185061;28;20025;-68
2022/07/31 04:51:21;;;;;;;6.57;2.97;;;21.70;98.20;;;;;;4183209;28;20040;-68
2022/07/31 04:53:22;;;;;;;3.88;2.53;;;21.70;98.30;;;;;;4167390;28;20494;-68
2022/07/31 04:55:23;;;;;;;4.15;2.95;;;21.70;98.20;;;;;;4179368;28;20056;-67
2022/07/31 04:57:23;;;;;;;3.97;2.75;;;21.80;98.30;;;;;;4177332;28;20106;-67
2022/07/31 04:59:24;;;;;;;4.72;2.95;;;21.80;98.40;;;;;;4183592;28;20048;-68
2022/07/31 05:01:25;;;;;;;5.55;3.08;;;21.80;98.40;;;;;;4183322;28;20033;-67
2022/07/31 05:03:25;;;;;;;5.18;3.22;;;21.70;98.90;;;;;;4187966;28;20415;-68
2022/07/31 05:05:26;;;;;;;7.30;3.00;;;21.60;98.50;;;;;;4183641;28;20045;-67
2022/07/31 05:07:27;;;;;;;5.68;2.97;;;21.70;99.90;;;;;;4179026;28;20733;-68
2022/07/31 05:09:32;;;;;;;6.40;3.35;;;21.70;99.30;;;;;;4187010;28;20557;-67
2022/07/31 05:11:33;;;;;;;5.03;3.20;;;21.70;98.50;;;;;;4181954;28;20044;-68
2022/07/31 05:13:34;;;;;;;7.13;3.33;;;21.70;99.20;;;;;;4183336;28;20122;-67
2022/07/31 05:15:34;;;;;;;6.07;3.42;;;21.70;98.80;;;;;;4183929;28;20361;-67
2022/07/31 05:17:36;;;;;;;4.90;3.38;;;21.70;98.40;;;;;;4181251;28;20028;-67
2022/07/31 05:19:37;;;;;;;4.07;3.33;;;21.70;99.20;;;;;;4186611;28;20109;-67
2022/07/31 05:21:37;;;;;;;7.50;4.00;;;21.60;99.60;;;;;;4182709;28;20021;-67
2022/07/31 05:23:39;;;;;;;6.82;3.75;;;21.60;99.40;;;;;;4185674;28;20106;-67
2022/07/31 05:25:39;;;;;;;3.47;3.00;;;21.50;99.30;;;;;;4176807;28;20047;-67
2022/07/31 05:27:40;;;;;;;4.53;3.13;;;21.50;99.70;;;;;;4174722;28;20037;-67
2022/07/31 05:29:41;;;;;;;4.25;3.13;;;21.60;99.90;;;;;;4181233;28;20103;-67
2022/07/31 05:31:41;;;;;;;4.88;3.10;;;21.60;99.90;;;;;;4180697;28;20041;-67
2022/07/31 05:33:43;;;;;;;4.95;3.40;;;21.50;99.60;;;;;;4177963;28;20049;-67
2022/07/31 05:35:43;;;;;;;6.30;4.35;;;21.60;99.70;;;;;;4183837;28;20041;-68
2022/07/31 05:37:44;;;;;;;5.50;3.28;;;21.60;99.60;;;;;;4182014;28;20090;-68
2022/07/31 05:39:45;;;;;;;5.72;3.15;;;21.60;99.90;;;;;;4177052;28;20029;-67
2022/07/31 05:41:47;;;;;;;6.63;3.58;;;21.60;99.70;;;;;;4175821;28;20029;-68
2022/07/31 05:43:48;;;;;;;5.65;3.22;;;21.50;99.90;;;;;;4163377;28;20049;-67
2022/07/31 05:45:49;;;;;;;4.03;3.03;;;21.50;99.90;;;;;;4180273;28;20049;-68
2022/07/31 05:47:49;;;;;;;5.95;3.80;;;21.50;99.60;;;;;;4178277;28;20036;-68
2022/07/31 05:49:50;;;;;;;3.25;2.75;;;21.60;99.90;;;;;;4180144;28;20158;-67
2022/07/31 05:51:53;;;;;;;5.63;3.38;;;21.60;99.90;;;;;;4184808;28;20476;-67
2022/07/31 05:53:53;;;;;;;7.57;3.58;;;21.60;99.80;;;;;;4177784;28;20029;-68
2022/07/31 05:55:54;;;;;;;6.00;3.60;;;21.60;99.80;;;;;;4177431;28;20504;-68
2022/07/31 05:57:54;;;;;;;5.88;3.50;;;21.60;99.70;;;;;;4178083;28;20030;-67
2022/07/31 05:59:55;;;;;;;4.72;3.10;;;21.60;99.90;;;;;;4175056;28;20029;-67
2022/07/31 06:01:56;;;;;;;4.93;3.30;;;21.60;99.70;;;;;;4177325;28;20475;-68
2022/07/31 06:03:56;;;;;;;5.70;3.33;;;21.60;99.90;;;;;;4175009;28;20519;-69
2022/07/31 06:05:57;;;;;;;5.90;3.08;;;21.70;99.90;;;;;;4177731;28;20391;-69
2022/07/31 06:08:00;;;;;;;4.88;2.92;;;21.70;99.90;;;;;;4176667;28;20037;-69
2022/07/31 06:10:02;;;;;;;9.13;3.40;;;21.70;99.80;;;;;;4176051;28;20025;-69
2022/07/31 06:12:03;;;;;;;4.78;2.80;;;21.70;99.90;;;;;;4178464;28;20033;-69
2022/07/31 06:14:03;;;;;;;4.47;2.97;;;21.70;99.90;;;;;;4176063;28;20051;-69
2022/07/31 06:16:11;;;;;;;4.18;2.67;;;21.70;99.90;;;;;;4178611;28;20454;-69
2022/07/31 06:18:13;;;;;;;4.00;3.15;;;21.70;99.90;;;;;;4167325;28;20038;-69
2022/07/31 06:20:14;;;;;;;3.80;2.78;;;21.60;99.90;;;;;;4158356;28;20121;-69
2022/07/31 06:22:14;;;;;;;5.00;2.60;;;21.70;99.90;;;;;;4162134;28;20496;-70
2022/07/31 06:24:15;;;;;;;5.60;3.10;;;21.70;99.90;;;;;;4160450;28;20121;-69
2022/07/31 06:26:16;;;;;;;4.35;2.70;;;21.70;99.90;;;;;;4161518;28;20388;-69
2022/07/31 06:28:16;;;;;;;4.07;2.35;;;21.70;99.90;;;;;;4161212;28;20040;-69
2022/07/31 06:30:17;;;;;;;4.10;2.80;;;21.80;99.90;;;;;;4162218;28;20065;-69
2022/07/31 06:32:19;;;;;;;4.40;3.10;;;21.80;99.90;;;;;;4160886;28;20435;-69
2022/07/31 06:34:19;;;;;;;4.35;3.05;;;21.80;99.90;;;;;;4162554;28;20044;-69
2022/07/31 06:36:20;;;;;;;4.65;3.00;;;21.80;99.90;;;;;;4162066;28;20472;-69
2022/07/31 06:38:23;;;;;;;4.80;3.22;;;21.80;99.90;;;;;;4160168;28;20064;-69
2022/07/31 06:40:23;;;;;;;;;;;21.80;99.90;;;;;;4158960;28;20116;-69
2022/07/31 06:42:25;;;;;;;9.75;2.80;;;21.80;99.90;;;;;;4160281;28;19971;-69
2022/07/31 06:44:26;;;;;;;6.68;2.67;;;21.70;99.90;;;;;;4162332;28;20040;-69
2022/07/31 06:46:27;;;;;;;3.25;2.58;;;21.80;99.90;;;;;;4160759;28;20061;-69
2022/07/31 06:48:27;;;;;;;3.40;2.60;;;21.70;99.90;;;;;;4159960;28;20042;-69
2022/07/31 06:50:28;;;;;;;3.17;2.30;;;21.70;99.90;;;;;;4159759;28;20041;-69
2022/07/31 06:52:29;;;;;;;3.83;2.50;;;21.70;99.90;;;;;;4162352;28;20037;-70
2022/07/31 06:54:29;;;;;;;4.75;2.28;;;21.80;99.90;;;;;;4160969;28;20113;-69
2022/07/31 06:56:30;;;;;;;4.05;2.40;;;21.70;99.90;;;;;;4161184;28;20522;-69
2022/07/31 06:58:32;;;;;;;4.03;2.35;;;21.80;99.90;;;;;;4160289;28;20381;-70
2022/07/31 07:00:32;;;;;;;3.45;2.50;;;21.70;99.90;;;;;;4160307;28;20357;-70
2022/07/31 07:02:33;;;;;;;4.40;2.40;;;21.70;99.90;;;;;;4161817;28;20124;-70
2022/07/31 07:04:33;;;;;;;3.53;2.38;;;21.70;99.90;;;;;;4160417;28;20045;-70
2022/07/31 07:06:34;;;;;;;2.20;2.00;;;21.70;99.90;;;;;;4159092;28;20125;-69
2022/07/31 07:08:35;;;;;;;2.88;1.95;;;21.80;99.90;;;;;;4158074;28;20088;-69
2022/07/31 07:10:35;;;;;;;3.42;1.67;;;21.70;99.90;;;;;;4160385;28;20021;-69
2022/07/31 07:12:36;;;;;;;4.20;2.20;;;21.70;99.90;;;;;;4158517;28;20116;-70
2022/07/31 07:14:37;;;;;;;6.32;2.35;;;21.70;99.90;;;;;;4157627;28;20079;-70
2022/07/31 07:16:37;;;;;;;3.85;2.20;;;21.70;99.90;;;;;;4159497;28;20034;-69
2022/07/31 07:18:38;;;;;;;2.75;1.90;;;21.70;99.90;;;;;;4167108;28;20106;-70
2022/07/31 07:20:38;;;;;;;2.53;1.92;;;21.70;99.90;;;;;;4161950;28;20045;-69
2022/07/31 07:22:39;;;;;;;2.20;2.00;;;21.80;99.90;;;;;;4159711;28;20087;-69
2022/07/31 07:24:40;;;;;;;2.47;1.90;;;21.80;99.90;;;;;;4162637;28;20034;-69
2022/07/31 07:26:41;;;;;;;2.60;2.08;;;21.80;99.90;;;;;;4159807;28;20037;-69
2022/07/31 07:28:41;;;;;;;2.42;1.70;;;21.80;99.90;;;;;;4170481;28;20033;-69
2022/07/31 07:30:43;;;;;;;3.00;1.70;;;21.80;99.90;;;;;;4168156;28;20034;-69
2022/07/31 07:32:43;;;;;;;2.72;2.10;;;21.80;99.90;;;;;;4165811;28;20400;-69
2022/07/31 07:34:44;;;;;;;2.92;2.08;;;21.80;99.90;;;;;;4174413;28;20037;-70
2022/07/31 07:36:44;;;;;;;2.88;1.67;;;21.80;99.90;;;;;;4180660;28;20510;-69
2022/07/31 07:38:45;;;;;;;5.32;2.30;;;21.80;99.90;;;;;;4178006;28;20037;-69
2022/07/31 07:40:46;;;;;;;3.88;2.20;;;21.80;99.90;;;;;;4174979;28;20480;-69
2022/07/31 07:42:46;;;;;;;5.53;2.13;;;21.80;99.90;;;;;;4165747;28;20076;-69
2022/07/31 07:44:47;;;;;;;3.22;1.85;;;21.80;99.90;;;;;;4173652;28;20056;-69
2022/07/31 07:46:48;;;;;;;5.38;2.67;;;21.80;99.90;;;;;;4168265;28;20404;-69
2022/07/31 07:48:49;;;;;;;2.42;1.67;;;21.70;99.90;;;;;;4150430;28;20030;-69
2022/07/31 07:50:50;;;;;;;3.47;2.15;;;21.70;99.90;;;;;;4144822;28;20036;-69
2022/07/31 07:52:51;;;;;;;3.10;1.88;;;21.70;99.90;;;;;;4174634;28;20067;-69
2022/07/31 07:54:51;;;;;;;3.47;2.10;;;21.70;99.90;;;;;;4175615;28;20091;-68
2022/07/31 07:56:53;;;;;;;4.10;2.00;;;21.70;99.90;;;;;;4175523;28;20075;-69
2022/07/31 07:58:54;;;;;;;2.47;1.80;;;21.70;99.90;;;;;;4172789;28;20052;-69
2022/07/31 08:00:54;;;;;;;3.55;2.30;;;21.70;99.90;;;;;;4173408;28;20635;-69
2022/07/31 08:02:55;;;;;;;2.97;2.05;;;21.70;99.90;;;;;;4175589;28;20037;-70
2022/07/31 08:04:56;;;;;;;1.95;1.73;;;21.70;99.90;;;;;;4173633;28;20400;-70
2022/07/31 08:06:56;;;;;;;3.15;2.22;;;21.70;99.90;;;;;;4170607;28;20344;-69
2022/07/31 08:08:57;;;;;;;4.13;1.92;;;21.70;99.90;;;;;;4174120;28;20044;-69
2022/07/31 08:10:59;;;;;;;5.05;2.33;;;21.70;99.90;;;;;;4172957;28;20032;-69
2022/07/31 08:13:00;;;;;;;5.10;2.85;;;21.80;99.90;;;;;;4174401;28;20024;-69
2022/07/31 08:15:01;;;;;;;4.68;2.10;;;21.70;99.90;;;;;;4174836;28;20036;-69
2022/07/31 08:17:02;;;;;;;2.00;1.80;;;21.80;99.90;;;;;;4175714;28;20483;-69
2022/07/31 08:19:02;;;;;;;4.93;2.10;;;21.80;99.90;;;;;;4174435;28;20029;-69
2022/07/31 08:21:03;;;;;;;2.35;2.00;;;21.90;99.90;;;;;;4172927;28;20391;-69
2022/07/31 08:23:04;;;;;;;4.30;2.40;;;21.90;99.90;;;;;;4174138;28;20068;-69
2022/07/31 08:25:04;;;;;;;3.35;2.60;;;21.90;99.90;;;;;;4174573;28;20127;-70
2022/07/31 08:27:23;;;;;;;2.75;2.00;;;21.90;99.90;;;;;;4174654;28;20380;-69
2022/07/31 08:29:24;;;;;;;4.03;2.13;;;21.90;99.90;;;;;;4172829;28;20035;-69
2022/07/31 08:31:25;;;;;;;2.05;1.83;;;22.00;99.90;;;;;;4173282;28;20052;-70
2022/07/31 08:33:26;;;;;;;3.40;2.20;;;22.00;99.90;;;;;;4178662;28;20522;-69
2022/07/31 08:35:26;;;;;;;3.10;1.70;;;22.00;99.90;;;;;;4182318;28;21073;-69
2022/07/31 08:37:27;;;;;;;2.30;2.00;;;22.00;99.90;;;;;;4178457;28;20039;-69
2022/07/31 08:39:28;;;;;;;2.70;1.92;;;22.00;99.90;;;;;;4177354;28;20116;-69
2022/07/31 08:41:29;;;;;;;2.95;1.83;;;22.00;99.90;;;;;;4180124;28;20036;-68
2022/07/31 08:43:30;;;;;;;4.15;2.35;;;22.00;99.90;;;;;;4181333;28;20066;-69
2022/07/31 08:45:32;;;;;;;3.60;1.80;;;22.00;99.90;;;;;;4185549;28;20080;-68
2022/07/31 08:47:34;;;;;;;;;;;22.00;99.90;;;;;;4176381;28;20487;-69
2022/07/31 08:49:41;;;;;;;3.97;1.98;;;21.90;99.90;;;;;;4176406;28;19920;-69
2022/07/31 08:51:44;;;;;;;2.65;1.80;;;22.00;99.90;;;;;;4179463;28;20384;-69
2022/07/31 08:53:45;;;;;;;3.13;2.03;;;22.00;99.90;;;;;;4178980;28;20064;-70
2022/07/31 08:55:45;;;;;;;2.03;1.83;;;22.00;99.90;;;;;;4168536;28;20083;-69
2022/07/31 08:57:49;;;;;;;2.47;1.83;;;22.10;99.90;;;;;;4176648;28;20037;-69
2022/07/31 08:59:51;;;;;;;7.07;2.42;;;22.10;99.90;;;;;;4177428;28;20029;-68
2022/07/31 09:01:55;;;;;;;2.90;1.90;;;22.10;99.90;;;;;;4176468;28;20070;-69
2022/07/31 09:03:57;;;;;;;3.30;1.63;;;22.10;99.90;;;;;;4180326;28;20033;-69
2022/07/31 09:05:58;;;;;;;4.25;1.65;;;22.10;99.90;;;;;;4178180;28;20120;-69
2022/07/31 09:07:59;;;;;;;2.22;1.70;;;22.10;99.90;;;;;;4180637;28;20036;-69
2022/07/31 09:10:00;;;;;;;1.88;1.40;;;22.20;99.90;;;;;;4161559;28;20026;-69
2022/07/31 09:12:01;;;;;;;3.78;1.80;;;22.20;99.90;;;;;;4179425;28;20460;-69
2022/07/31 09:14:03;;;;;;;1.83;1.50;;;22.30;99.90;;;;;;4178415;28;20025;-69
2022/07/31 09:16:05;;;;;;;2.83;1.58;;;22.30;99.90;;;;;;4174973;28;20116;-69
2022/07/31 09:18:20;;;;;;;1.75;1.60;;;22.40;99.90;;;;;;4176421;28;20036;-69
2022/07/31 09:20:26;;;;;;;2.85;1.50;;;22.40;99.90;;;;;;4155422;28;20033;-69
2022/07/31 09:22:29;;;;;;;2.40;1.42;;;22.50;99.90;;;;;;4173150;28;20041;-69
2022/07/31 09:37:51;;;;;;;5.40;1.70;;;22.60;99.90;;;;;;4075664;29;20127;-68
2022/07/31 09:43:27;;;;;;;2.58;1.60;;;22.70;99.90;;;;;;4060628;29;20039;-68
2022/07/31 09:45:27;;;;;;;2.03;1.58;;;22.70;99.90;;;;;;4075553;29;20482;-69
2022/07/31 09:47:31;;;;;;;3.88;1.90;;;22.70;99.90;;;;;;4086709;28;20114;-69
2022/07/31 09:49:33;;;;;;;4.88;2.20;;;22.70;99.90;;;;;;4082115;28;20337;-69
2022/07/31 09:51:41;;;;;;;2.05;1.42;;;22.70;99.90;;;;;;4081947;29;20046;-68
2022/07/31 09:53:45;;;;;;;1.73;1.40;;;22.80;99.90;;;;;;4081871;29;20040;-68
2022/07/31 09:55:56;;;;;;;2.47;1.58;;;22.80;99.90;;;;;;4077902;29;20047;-68
2022/07/31 09:57:59;;;;;;;2.20;1.70;;;22.90;99.90;;;;;;4065056;29;20430;-68
2022/07/31 10:00:00;;;;;;;2.15;1.33;;;22.90;99.90;;;;;;4063537;29;20079;-68
2022/07/31 10:02:01;;;;;;;1.83;1.50;;;23.00;99.90;;;;;;4062972;29;20049;-68
2022/07/31 10:04:03;;;;;;;2.88;1.52;;;23.10;99.90;;;;;;4061371;29;20052;-69
2022/07/31 10:06:07;;;;;;;1.58;1.27;;;23.20;99.90;;;;;;4063135;29;20048;-68
2022/07/31 10:08:10;;;;;;;2.05;1.60;;;23.20;99.90;;;;;;4061698;29;20479;-68
2022/07/31 10:10:13;;;;;;;2.90;1.60;;;23.30;99.90;;;;;;4063872;29;20055;-70
2022/07/31 10:12:18;;;;;;;9.40;1.90;;;23.40;99.90;;;;;;4062597;29;20040;-69
2022/07/31 10:14:28;;;;;;;1.67;1.48;;;23.40;99.90;;;;;;4077167;29;20066;-68
2022/07/31 10:16:33;;;;;;;2.03;1.58;;;23.50;99.90;;;;;;4062631;29;20043;-69
2022/07/31 10:18:37;;;;;;;2.15;1.40;;;23.50;99.90;;;;;;4074764;28;20046;-68
2022/07/31 10:20:42;;;;;;;1.77;1.45;;;23.60;99.90;;;;;;4082066;28;20031;-68
2022/07/31 10:22:46;;;;;;;2.75;1.52;;;23.70;99.90;;;;;;4077633;29;20040;-68
2022/07/31 10:24:50;;;;;;;3.15;1.70;;;23.70;99.90;;;;;;4078715;29;20036;-69
2022/07/31 10:26:56;;;;;;;1.73;1.50;;;23.80;99.90;;;;;;4074451;29;20107;-68
2022/07/31 10:28:57;;;;;;;2.00;1.48;;;23.80;99.90;;;;;;4076219;29;20052;-68
2022/07/31 10:43:00;;;;;;;2.50;1.42;;;24.00;99.90;;;;;;4060978;29;20135;-68
2022/07/31 10:45:07;;;;;;;2.45;1.40;;;24.10;99.90;;;;;;4064764;29;20075;-68
2022/07/31 10:47:12;;;;;;;2.55;1.63;;;24.10;99.90;;;;;;4064338;29;20048;-67
2022/07/31 10:55:16;;;;;;;1.50;1.40;;;24.10;99.90;;;;;;4062434;29;20092;-68
2022/07/31 10:57:22;;;;;;;2.28;1.20;;;24.20;99.90;;;;;;4046520;29;20068;-68
2022/07/31 10:59:28;;;;;;;1.40;1.30;;;24.20;99.90;;;;;;4058839;29;20075;-68
2022/07/31 11:01:29;;;;;;;1.65;1.30;;;24.20;99.90;;;;;;4060713;29;20864;-68
2022/07/31 11:03:37;;;;;;;7.88;1.90;;;24.20;99.90;;;;;;4053765;29;20518;-68
2022/07/31 11:05:38;;;;;;;2.60;1.50;;;24.30;99.90;;;;;;4057586;29;20048;-68
2022/07/31 11:07:44;;;;;;;2.25;1.60;;;24.30;99.90;;;;;;4057128;29;20045;-68
2022/07/31 11:09:45;;;;;;;5.68;1.85;;;24.30;99.90;;;;;;4060249;29;20048;-68
2022/07/31 11:11:45;;;;;;;3.80;1.55;;;24.40;99.90;;;;;;4060270;29;20048;-68
2022/07/31 11:13:51;;;;;;;1.70;1.17;;;24.30;99.90;;;;;;4061809;29;20044;-68
2022/07/31 11:16:05;;;;;;;1.55;1.20;;;24.40;99.90;;;;;;4049913;29;20068;-67